Time;durP1;ratioP1;P1;durP2;ratioP2;P2;SDS_P1;SDS_P2;PMS_P1;PMS_P2;Temp;Humidity;BMP_temperature;BMP_pressure;BME280_temperature;BME280_humidity;BME280_pressure;Samples;Min_cycle;Max_cycle;Signal;HPM_P1;HPM_P2
2023/10/12 00:01:57;;;;;;;;;;;13.20;99.90;;;;;;5094216;28;20274;-71
2023/10/12 00:07:42;;;;;;;;;;;13.00;99.90;;;;;;5072768;28;19920;-72
2023/10/12 00:12:44;;;;;;;;;;;12.90;99.90;;;;;;5090033;28;20136;-72
2023/10/12 00:15:28;;;;;;;;;;;13.20;99.90;;;;;;5111107;28;19920;-71
2023/10/12 00:17:58;;;;;;;;;;;13.20;99.90;;;;;;5110894;28;19946;-71
2023/10/12 00:20:34;;;;;;;;;;;12.90;99.90;;;;;;5093798;28;19923;-71
2023/10/12 00:23:10;;;;;;;;;;;12.90;99.90;;;;;;5110971;28;20279;-71
2023/10/12 00:25:41;;;;;;;;;;;13.20;99.90;;;;;;5093996;28;19926;-71
2023/10/12 00:28:07;;;;;;;;;;;12.90;99.90;;;;;;5110647;28;19923;-71
2023/10/12 00:30:33;;;;;;;;;;;13.20;99.90;;;;;;5090334;28;19920;-71
2023/10/12 00:32:59;;;;;;;;;;;13.10;99.90;;;;;;5110810;28;19924;-71
2023/10/12 00:35:24;;;;;;;;;;;13.00;99.90;;;;;;5110610;28;19919;-71
2023/10/12 00:37:54;;;;;;;;;;;13.00;99.90;;;;;;5111003;28;19920;-71
2023/10/12 00:40:25;;;;;;;;;;;13.00;99.90;;;;;;5110440;28;20306;-71
2023/10/12 00:42:51;;;;;;;;;;;13.00;99.90;;;;;;5077490;28;20007;-71
2023/10/12 00:45:27;;;;;;;;;;;12.90;99.90;;;;;;5110854;28;20002;-71
2023/10/12 00:47:53;;;;;;;;;;;13.10;99.90;;;;;;5110674;28;20279;-71
2023/10/12 00:50:19;;;;;;;;;;;13.30;99.90;;;;;;5110546;28;19919;-71
2023/10/12 00:52:55;;;;;;;;;;;13.10;99.90;;;;;;5096949;28;19927;-72
2023/10/12 00:55:22;;;;;;;;;;;13.00;99.90;;;;;;5078939;28;19964;-72
2023/10/12 00:57:50;;;;;;;;;;;12.90;99.90;;;;;;5110261;28;19968;-71
2023/10/12 01:00:16;;;;;;;;;;;13.10;99.90;;;;;;5093459;28;19920;-71
2023/10/12 01:02:44;;;;;;;;;;;13.10;99.90;;;;;;5076462;28;20369;-72
2023/10/12 01:05:11;;;;;;;;;;;12.90;99.90;;;;;;5093207;28;19919;-71
2023/10/12 01:07:37;;;;;;;;;;;13.10;99.90;;;;;;5111306;28;19919;-71
2023/10/12 01:10:06;;;;;;;;;;;13.10;99.90;;;;;;5110175;28;19967;-71
2023/10/12 01:12:34;;;;;;;;;;;13.10;99.90;;;;;;5110127;28;19915;-72
2023/10/12 01:15:09;;;;;;;;;;;12.90;99.90;;;;;;5109999;28;20379;-71
2023/10/12 01:17:35;;;;;;;;;;;12.80;99.90;;;;;;5110276;28;19964;-71
2023/10/12 01:20:12;;;;;;;;;;;12.90;99.90;;;;;;5111327;28;20014;-71
2023/10/12 01:22:39;;;;;;;;;;;12.80;99.90;;;;;;5110068;28;19971;-72
2023/10/12 01:25:19;;;;;;;;;;;12.90;99.90;;;;;;5110129;28;19971;-71
2023/10/12 01:27:45;;;;;;;;;;;12.70;99.90;;;;;;5110108;28;19980;-71
2023/10/12 01:30:23;;;;;;;;;;;12.90;99.90;;;;;;5090315;28;20011;-71
2023/10/12 01:32:58;;;;;;;;;;;12.80;99.90;;;;;;5093277;28;19920;-72
2023/10/12 01:35:33;;;;;;;;;;;12.70;99.90;;;;;;5104112;28;19915;-71
2023/10/12 01:38:08;;;;;;;;;;;12.70;99.90;;;;;;5109738;28;20402;-72
2023/10/12 01:43:15;;;;;;;;;;;12.70;99.90;;;;;;5111146;28;19994;-72
2023/10/12 01:45:41;;;;;;;;;;;12.70;99.90;;;;;;5109880;28;19926;-72
2023/10/12 01:48:10;;;;;;;;;;;12.80;99.90;;;;;;5107022;28;19916;-72
2023/10/12 01:50:38;;;;;;;;;;;12.70;99.90;;;;;;5099402;28;19938;-72
2023/10/12 01:53:22;;;;;;;;;;;12.70;99.90;;;;;;5097029;27;19916;-71
2023/10/12 01:55:50;;;;;;;;;;;12.70;99.90;;;;;;5109725;28;19926;-71
2023/10/12 01:58:17;;;;;;;;;;;12.60;99.90;;;;;;5109941;28;19920;-72
2023/10/12 02:00:47;;;;;;;;;;;12.60;99.90;;;;;;5104511;28;20427;-71
2023/10/12 02:03:20;;;;;;;;;;;12.50;99.90;;;;;;5079512;28;19923;-72
2023/10/12 02:08:52;;;;;;;;;;;12.40;99.90;;;;;;5092876;28;19924;-71
2023/10/12 02:13:47;;;;;;;;;;;12.50;99.90;;;;;;5092930;28;20367;-71
2023/10/12 02:16:15;;;;;;;;;;;12.70;99.90;;;;;;5093145;28;19916;-71
2023/10/12 02:18:42;;;;;;;;;;;12.50;99.90;;;;;;5092840;28;19916;-71
2023/10/12 02:21:20;;;;;;;;;;;12.60;99.90;;;;;;5075836;28;19928;-71
2023/10/12 02:29:18;;;;;;;;;;;12.30;99.90;;;;;;5095709;28;19919;-72
2023/10/12 02:32:17;;;;;;;;;;;12.30;99.90;;;;;;5096338;28;20359;-72
2023/10/12 02:34:32;;;;;;;;;;;12.40;99.90;;;;;;5091257;28;20496;-72
2023/10/12 02:39:42;;;;;;;;;;;12.50;99.90;;;;;;5092517;28;20405;-72
2023/10/12 02:44:51;;;;;;;;;;;12.30;99.90;;;;;;5094196;28;19923;-72
2023/10/12 02:47:22;;;;;;;;;;;12.50;99.90;;;;;;5096003;28;19920;-72
2023/10/12 02:49:48;;;;;;;;;;;12.50;99.90;;;;;;5111854;28;19923;-72
2023/10/12 02:52:15;;;;;;;;;;;12.20;99.90;;;;;;5106663;28;19916;-72
2023/10/12 02:54:50;;;;;;;;;;;12.50;99.90;;;;;;5088304;28;19966;-72
2023/10/12 02:57:24;;;;;;;;;;;12.50;99.90;;;;;;5076938;28;19916;-72
2023/10/12 02:59:59;;;;;;;;;;;12.40;99.90;;;;;;5089627;28;20294;-72
2023/10/12 03:02:32;;;;;;;;;;;12.30;99.90;;;;;;5098076;28;19923;-72
2023/10/12 03:05:07;;;;;;;;;;;12.10;99.90;;;;;;5095823;28;19920;-71
2023/10/12 03:07:35;;;;;;;;;;;12.30;99.90;;;;;;5112688;28;19944;-71
2023/10/12 03:10:06;;;;;;;;;;;12.20;99.90;;;;;;5112688;28;19916;-71
2023/10/12 03:12:35;;;;;;;;;;;12.30;99.90;;;;;;5112107;28;19920;-72
2023/10/12 03:15:11;;;;;;;;;;;12.40;99.90;;;;;;5095436;28;19920;-72
2023/10/12 03:17:37;;;;;;;;;;;12.20;99.90;;;;;;5106464;28;19920;-72
2023/10/12 03:22:52;;;;;;;;;;;12.30;99.90;;;;;;5111995;28;20383;-72
2023/10/12 03:25:20;;;;;;;;;;;12.10;99.90;;;;;;5112118;28;19919;-72
2023/10/12 03:27:53;;;;;;;;;;;12.00;99.90;;;;;;5095148;28;19956;-72
2023/10/12 03:30:24;;;;;;;;;;;12.10;99.90;;;;;;5108127;28;19915;-72
2023/10/12 03:32:49;;;;;;;;;;;12.00;99.90;;;;;;5093627;28;20055;-70
2023/10/12 03:35:23;;;;;;;;;;;12.00;99.90;;;;;;5094885;28;20327;-70
2023/10/12 03:37:53;;;;;;;;;;;12.20;99.90;;;;;;5111693;28;19926;-72
2023/10/12 03:43:39;;;;;;;;;;;12.20;99.90;;;;;;5111863;28;20048;-72
2023/10/12 03:46:07;;;;;;;;;;;12.10;99.90;;;;;;5109957;28;20551;-75
2023/10/12 03:49:07;;;;;;;;;;;12.20;99.90;;;;;;5098885;28;19947;-74
2023/10/12 03:51:40;;;;;;;;;;;12.20;99.90;;;;;;5092039;28;19949;-75
2023/10/12 03:54:25;;;;;;;;;;;12.10;99.90;;;;;;5084666;28;19919;-74
2023/10/12 03:56:51;;;;;;;;;;;12.00;99.90;;;;;;5111254;28;19919;-75
2023/10/12 03:59:27;;;;;;;;;;;12.20;99.90;;;;;;5111879;28;19933;-75
2023/10/12 04:01:54;;;;;;;;;;;11.90;99.90;;;;;;5099550;28;19939;-75
2023/10/12 04:04:34;;;;;;;;;;;11.80;99.90;;;;;;5101145;28;19997;-75
2023/10/12 04:09:34;;;;;;;;;;;11.80;99.90;;;;;;5091015;28;20407;-75
2023/10/12 04:12:18;;;;;;;;;;;12.10;99.90;;;;;;5090884;28;19920;-75
2023/10/12 04:17:17;;;;;;;;;;;11.90;99.90;;;;;;5091341;28;20331;-75
2023/10/12 04:19:58;;;;;;;;;;;11.90;99.90;;;;;;5092236;28;20299;-75
2023/10/12 04:22:25;;;;;;;;;;;12.00;99.90;;;;;;5092656;28;20002;-76
2023/10/12 04:29:08;;;;;;;2.97;0.77;;;11.80;99.90;;;;;;5062641;28;20068;-75
2023/10/12 04:31:41;;;;;;;2.25;0.70;;;11.90;99.90;;;;;;5039256;28;20374;-72
2023/10/12 04:34:07;;;;;;;4.53;0.85;;;11.80;99.90;;;;;;5072188;28;20054;-73
2023/10/12 04:41:38;;;;;;;2.03;0.80;;;11.70;99.90;;;;;;5060577;28;20052;-72
2023/10/12 04:44:25;;;;;;;3.25;0.90;;;11.60;99.90;;;;;;5069573;28;20189;-72
2023/10/12 04:46:58;;;;;;;2.22;0.70;;;11.70;99.90;;;;;;5075082;28;20411;-72
2023/10/12 04:52:15;;;;;;;1.73;0.70;;;11.50;99.90;;;;;;5051172;28;20041;-72
2023/10/12 04:57:31;;;;;;;3.20;0.80;;;11.50;99.90;;;;;;5069409;28;20483;-72
2023/10/12 05:02:53;;;;;;;2.47;0.82;;;11.70;99.90;;;;;;5073499;28;20097;-71
2023/10/12 05:07:54;;;;;;;3.00;0.77;;;11.50;99.90;;;;;;5067593;28;20857;-73
2023/10/12 05:10:28;;;;;;;2.35;0.60;;;11.70;99.90;;;;;;5103332;28;20032;-73
2023/10/12 05:13:04;;;;;;;4.00;0.90;;;11.40;99.90;;;;;;5103632;28;20541;-72
2023/10/12 05:15:41;;;;;;;3.10;0.95;;;11.60;99.90;;;;;;5099571;28;20120;-72
2023/10/12 05:18:07;;;;;;;;;;;11.40;99.90;;;;;;5052867;28;20121;-72
2023/10/12 05:20:34;;;;;;;3.50;0.90;;;11.60;99.90;;;;;;5083452;28;19920;-72
2023/10/12 05:23:02;;;;;;;3.40;1.00;;;11.40;99.90;;;;;;5064834;28;20608;-72
2023/10/12 05:25:47;;;;;;;1.85;0.60;;;11.30;99.90;;;;;;5070687;28;20053;-72
2023/10/12 05:28:27;;;;;;;2.95;0.75;;;11.50;99.90;;;;;;5072946;28;20127;-72
2023/10/12 05:31:09;;;;;;;2.08;0.70;;;11.40;99.90;;;;;;5080465;28;20517;-72
2023/10/12 05:36:09;;;;;;;3.42;0.80;;;11.30;99.90;;;;;;5081966;28;20075;-72
2023/10/12 05:38:49;;;;;;;2.22;0.65;;;11.30;99.90;;;;;;5071331;28;20089;-72
2023/10/12 05:41:34;;;;;;;2.33;0.90;;;11.10;99.90;;;;;;5071981;28;20067;-72
2023/10/12 05:44:03;;;;;;;2.83;0.63;;;11.10;99.90;;;;;;5052208;28;20045;-73
2023/10/12 05:46:34;;;;;;;1.95;0.70;;;11.10;99.90;;;;;;5051900;28;20594;-73
2023/10/12 05:49:01;;;;;;;1.88;0.50;;;11.20;99.90;;;;;;5065075;28;20093;-72
2023/10/12 05:51:27;;;;;;;2.10;0.65;;;10.90;99.90;;;;;;5069917;28;20040;-72
2023/10/12 05:54:03;;;;;;;1.67;0.55;;;10.90;99.90;;;;;;5039921;28;20079;-72
2023/10/12 05:56:34;;;;;;;1.35;0.50;;;10.80;99.90;;;;;;5066623;28;20041;-72
2023/10/12 05:59:00;;;;;;;0.63;0.30;;;10.80;99.90;;;;;;5055019;28;20051;-72
2023/10/12 06:01:32;;;;;;;2.83;0.95;;;10.80;99.90;;;;;;5071269;28;20044;-72
2023/10/12 06:03:59;;;;;;;1.13;0.40;;;10.80;99.90;;;;;;5071560;28;20475;-72
2023/10/12 06:06:25;;;;;;;0.88;0.38;;;10.80;99.90;;;;;;5071358;28;20103;-74
2023/10/12 06:08:53;;;;;;;1.30;0.40;;;10.60;99.90;;;;;;5071501;28;20048;-74
2023/10/12 06:11:25;;;;;;;0.68;0.30;;;10.50;99.90;;;;;;5071352;28;20460;-73
2023/10/12 06:13:52;;;;;;;0.95;0.50;;;10.40;99.90;;;;;;5071284;28;20060;-73
2023/10/12 06:16:20;;;;;;;0.65;0.32;;;10.60;99.90;;;;;;5071384;28;20075;-73
2023/10/12 06:18:49;;;;;;;1.55;0.50;;;10.40;99.90;;;;;;5070805;28;20059;-74
2023/10/12 06:21:18;;;;;;;1.20;0.30;;;10.30;99.90;;;;;;5071235;28;20043;-74
2023/10/12 06:23:50;;;;;;;0.55;0.30;;;10.50;99.90;;;;;;5070818;28;20044;-74
2023/10/12 06:26:29;;;;;;;0.70;0.40;;;10.40;99.90;;;;;;5070642;28;20064;-74
2023/10/12 06:28:57;;;;;;;0.75;0.32;;;10.50;99.90;;;;;;5070597;28;20505;-73
2023/10/12 06:31:24;;;;;;;1.08;0.43;;;10.40;99.90;;;;;;5071194;28;20396;-74
2023/10/12 06:33:52;;;;;;;1.02;0.38;;;10.30;99.90;;;;;;5051879;28;20491;-73
2023/10/12 06:36:22;;;;;;;0.80;0.20;;;10.40;99.90;;;;;;5070881;28;20040;-75
2023/10/12 06:41:28;;;;;;;1.00;0.50;;;10.40;99.90;;;;;;5071014;28;20404;-76
2023/10/12 06:46:48;;;;;;;1.05;0.70;;;10.50;99.90;;;;;;5070868;28;20056;-75
2023/10/12 06:49:24;;;;;;;1.30;0.80;;;10.50;99.90;;;;;;5069955;28;20106;-76
2023/10/12 06:52:03;;;;;;;0.70;0.70;;;10.30;99.90;;;;;;5065814;28;20052;-76
2023/10/12 07:02:29;;;;;;;1.05;0.75;;;10.40;99.90;;;;;;5070630;28;20166;-74
2023/10/12 07:05:01;;;;;;;1.05;0.68;;;10.80;99.90;;;;;;5070260;28;20620;-74
2023/10/12 07:07:36;;;;;;;1.13;0.60;;;10.60;99.90;;;;;;5033893;28;20144;-75
2023/10/12 07:12:49;;;;;;;0.50;0.40;;;10.90;99.90;;;;;;5070498;28;20052;-75
2023/10/12 07:15:20;;;;;;;0.60;0.60;;;10.70;99.90;;;;;;5070380;28;20091;-75
2023/10/12 07:17:49;;;;;;;1.15;0.47;;;10.90;99.90;;;;;;5070204;28;20143;-75
2023/10/12 07:23:04;;;;;;;2.20;0.60;;;11.00;99.90;;;;;;5070358;28;20564;-75
2023/10/12 07:25:35;;;;;;;2.05;0.80;;;11.50;99.90;;;;;;5070050;28;20044;-75
2023/10/12 07:28:01;;;;;;;0.90;0.60;;;11.70;99.90;;;;;;5069999;28;20052;-75
2023/10/12 07:30:30;;;;;;;;;;;11.80;99.90;;;;;;5051418;28;20037;-76
2023/10/12 07:33:04;;;;;;;2.25;0.75;;;11.70;99.90;;;;;;5070251;28;19928;-75
2023/10/12 07:35:38;;;;;;;2.42;0.68;;;11.90;99.90;;;;;;5069749;28;20048;-75
2023/10/12 07:38:13;;;;;;;1.27;0.60;;;12.00;99.90;;;;;;5050311;28;20123;-75
2023/10/12 07:40:49;;;;;;;1.02;0.52;;;12.20;99.90;;;;;;5047867;28;20056;-75
2023/10/12 07:43:19;;;;;;;1.98;0.70;;;12.40;99.90;;;;;;5042083;28;20041;-75
2023/10/12 07:45:54;;;;;;;1.75;0.70;;;12.80;99.90;;;;;;5063180;28;20130;-75
2023/10/12 07:49:22;;;;;;;1.83;0.60;;;12.70;99.90;;;;;;5049623;28;20044;-75
2023/10/12 07:51:19;;;;;;;1.80;0.68;;;13.10;99.90;;;;;;5059067;28;20242;-76
2023/10/12 07:53:57;;;;;;;2.70;0.70;;;13.00;99.90;;;;;;5070434;28;20040;-75
2023/10/12 07:56:33;;;;;;;2.53;0.80;;;13.00;99.90;;;;;;5070020;28;20048;-75
2023/10/12 07:59:00;;;;;;;1.50;0.50;;;13.20;99.90;;;;;;5050239;28;20053;-76
2023/10/12 08:03:58;;;;;;;4.90;0.77;;;13.10;99.90;;;;;;5059329;28;20106;-75
2023/10/12 08:06:31;;;;;;;2.45;0.68;;;12.90;99.90;;;;;;5053113;28;20087;-75
2023/10/12 08:09:21;;;;;;;2.50;0.77;;;13.00;99.90;;;;;;5071200;28;20079;-75
2023/10/12 08:11:47;;;;;;;1.05;0.50;;;12.90;99.90;;;;;;5069831;28;20056;-75
2023/10/12 08:14:46;;;;;;;1.83;0.52;;;13.00;99.90;;;;;;5069904;28;20052;-75
2023/10/12 08:19:57;;;;;;;1.83;0.60;;;13.10;99.90;;;;;;5069414;28;20124;-76
2023/10/12 08:22:26;;;;;;;4.35;0.70;;;13.10;99.90;;;;;;5069307;28;20037;-75
2023/10/12 08:24:58;;;;;;;2.60;0.60;;;13.00;99.90;;;;;;5069247;28;20060;-73
2023/10/12 08:27:39;;;;;;;2.08;0.60;;;13.20;99.90;;;;;;5048698;28;20056;-73
2023/10/12 08:30:19;;;;;;;1.95;0.60;;;13.30;99.90;;;;;;5057658;28;20473;-73
2023/10/12 08:32:55;;;;;;;3.50;0.80;;;13.20;99.90;;;;;;5065541;28;20040;-73
2023/10/12 08:36:10;;;;;;;1.55;0.70;;;13.20;99.90;;;;;;5045994;28;20055;-73
2023/10/12 08:38:40;;;;;;;1.23;0.60;;;13.30;99.90;;;;;;5065627;28;20056;-74
2023/10/12 08:41:29;;;;;;;1.90;0.60;;;13.30;99.90;;;;;;5067431;28;20048;-74
2023/10/12 08:44:04;;;;;;;1.02;0.40;;;13.50;99.90;;;;;;5032051;28;20469;-76
2023/10/12 08:47:09;;;;;;;1.98;0.70;;;13.40;99.90;;;;;;5055890;28;20057;-76
2023/10/12 08:49:52;;;;;;;4.03;0.95;;;13.40;99.90;;;;;;5050541;28;20049;-75
2023/10/12 08:52:29;;;;;;;3.80;0.85;;;13.50;99.90;;;;;;5059654;28;20060;-76
2023/10/12 08:55:47;;;;;;;2.72;0.80;;;13.40;99.90;;;;;;5065347;28;20044;-75
2023/10/12 08:58:18;;;;;;;3.55;1.00;;;13.40;99.90;;;;;;5060787;28;20124;-75
2023/10/12 09:03:27;;;;;;;2.33;0.60;;;13.60;99.90;;;;;;5068855;28;20048;-75
2023/10/12 09:05:58;;;;;;;2.00;0.50;;;13.60;99.90;;;;;;5048882;28;20053;-76
2023/10/12 09:08:39;;;;;;;2.50;0.68;;;13.60;99.90;;;;;;5064292;28;20122;-76
2023/10/12 09:13:37;;;;;;;3.70;0.90;;;13.70;99.90;;;;;;5072626;28;20084;-75
2023/10/12 09:16:14;;;;;;;6.45;1.27;;;13.70;99.90;;;;;;5072534;28;20083;-75
2023/10/12 09:18:47;;;;;;;2.75;0.90;;;13.70;99.90;;;;;;5053856;28;20037;-75
2023/10/12 09:23:50;;;;;;;2.00;0.57;;;14.00;99.90;;;;;;5072584;28;20087;-76
2023/10/12 09:26:34;;;;;;;3.80;1.13;;;14.10;99.90;;;;;;5071835;28;20389;-75
2023/10/12 09:36:38;;;;;;;2.58;1.00;;;14.20;99.90;;;;;;5072262;28;20569;-76
2023/10/12 09:39:12;;;;;;;2.63;0.70;;;14.40;99.90;;;;;;5073337;28;20029;-76
2023/10/12 09:41:40;;;;;;;2.08;1.00;;;14.40;99.90;;;;;;5072121;28;20048;-76
2023/10/12 09:44:11;;;;;;;4.78;1.88;;;14.40;99.90;;;;;;5072100;28;20604;-76
2023/10/12 09:46:47;;;;;;;2.72;0.93;;;14.30;99.90;;;;;;5051940;28;20041;-76
2023/10/12 09:49:29;;;;;;;2.72;0.93;;;14.30;99.90;;;;;;5052013;28;20060;-76
2023/10/12 09:51:59;;;;;;;2.30;0.70;;;14.30;99.90;;;;;;5066305;28;20510;-76
2023/10/12 09:55:14;;;;;;;5.68;1.08;;;14.30;99.90;;;;;;5044243;28;20532;-76
2023/10/12 09:57:49;;;;;;;4.60;0.90;;;14.30;99.90;;;;;;5063023;28;20052;-74
2023/10/12 10:03:03;;;;;;;4.17;0.80;;;14.40;99.90;;;;;;5071664;28;20056;-73
2023/10/12 10:06:01;;;;;;;1.98;0.80;;;14.50;99.90;;;;;;5071299;28;20040;-73
2023/10/12 10:08:29;;;;;;;3.97;0.75;;;14.50;99.90;;;;;;5072619;28;20059;-74
2023/10/12 10:10:57;;;;;;;3.90;1.00;;;14.50;99.90;;;;;;5071399;28;20044;-74
2023/10/12 10:13:49;;;;;;;3.08;0.80;;;14.60;99.90;;;;;;5071539;28;20044;-74
2023/10/12 10:16:17;;;;;;;2.15;0.70;;;14.70;99.90;;;;;;5054577;28;20080;-74
2023/10/12 10:18:56;;;;;;;4.30;1.10;;;14.80;96.40;;;;;;5071038;28;20482;-74
2023/10/12 10:21:30;;;;;;;1.73;0.60;;;14.80;99.90;;;;;;5051166;28;20049;-74
2023/10/12 10:23:57;;;;;;;4.32;0.98;;;15.00;99.90;;;;;;5035682;28;20127;-74
2023/10/12 10:26:30;;;;;;;5.00;1.10;;;15.10;99.90;;;;;;5070964;28;20045;-73
2023/10/12 10:29:07;;;;;;;4.47;1.33;;;15.30;99.90;;;;;;5070984;28;20055;-73
2023/10/12 10:31:41;;;;;;;3.25;0.80;;;15.50;99.90;;;;;;5071115;28;20045;-73
2023/10/12 10:34:10;;;;;;;2.42;0.90;;;15.70;99.90;;;;;;5070903;28;20068;-73
2023/10/12 10:36:36;;;;;;;3.53;0.90;;;15.90;99.90;;;;;;5071221;28;20062;-73
2023/10/12 10:44:13;;;;;;;6.63;1.40;;;16.50;99.90;;;;;;5070560;28;20055;-73
2023/10/12 10:46:44;;;;;;;4.32;1.05;;;16.50;99.90;;;;;;5070468;28;20041;-74
2023/10/12 10:49:16;;;;;;;2.50;0.75;;;16.60;99.90;;;;;;5070557;28;20123;-73
2023/10/12 10:52:02;;;;;;;1.92;0.75;;;16.70;99.90;;;;;;5066495;28;20045;-74
2023/10/12 10:54:29;;;;;;;2.50;0.60;;;16.90;99.90;;;;;;5063518;28;20363;-74
2023/10/12 10:56:58;;;;;;;2.80;0.80;;;16.90;57.70;;;;;;5070306;28;20037;-74
2023/10/12 10:59:24;;;;;;;2.97;0.75;;;16.80;99.90;;;;;;5070803;28;20127;-74
2023/10/12 11:01:50;;;;;;;;;;;16.60;95.20;;;;;;5070648;28;20033;-74
2023/10/12 11:07:02;;;;;;;2.30;0.70;;;16.50;99.90;;;;;;5069886;28;20049;-74
2023/10/12 11:09:47;;;;;;;2.45;1.10;;;16.50;99.90;;;;;;5033844;28;20048;-74
2023/10/12 11:12:14;;;;;;;3.00;1.20;;;16.50;99.90;;;;;;5049012;28;20549;-74
2023/10/12 11:14:52;;;;;;;3.08;0.80;;;16.50;99.90;;;;;;5044581;28;20044;-74
2023/10/12 11:17:20;;;;;;;1.85;0.80;;;16.50;99.90;;;;;;5070223;28;20090;-74
2023/10/12 11:19:49;;;;;;;1.92;0.70;;;16.50;99.30;;;;;;5070257;28;20656;-74
2023/10/12 11:22:15;;;;;;;1.98;0.70;;;16.50;29.60;;;;;;5069656;28;20098;-74
2023/10/12 11:24:53;;;;;;;2.10;0.60;;;16.50;26.90;;;;;;5069807;28;20036;-74
2023/10/12 11:27:35;;;;;;;2.80;0.70;;;16.40;38.30;;;;;;5052870;28;20044;-74
2023/10/12 11:30:18;;;;;;;1.17;0.35;;;16.30;95.70;;;;;;5057967;28;20036;-74
2023/10/12 11:32:55;;;;;;;1.27;0.40;;;16.40;82.50;;;;;;5069329;28;20048;-74
2023/10/12 11:35:43;;;;;;;2.00;0.55;;;16.30;1.00;;;;;;5069732;28;20040;-76
2023/10/12 11:38:17;;;;;;;1.67;0.60;;;16.30;28.70;;;;;;5038166;28;20511;-76
2023/10/12 11:40:44;;;;;;;1.30;0.50;;;16.40;47.30;;;;;;5063484;28;20107;-76
2023/10/12 11:43:11;;;;;;;1.73;0.70;;;16.40;39.70;;;;;;5049693;28;20098;-76
2023/10/12 11:46:03;;;;;;;1.67;0.75;;;16.50;42.40;;;;;;5063559;28;20078;-76
2023/10/12 11:48:30;;;;;;;2.33;0.70;;;16.50;42.60;;;;;;5069669;28;20454;-76
2023/10/12 11:50:57;;;;;;;1.85;0.60;;;16.50;1.00;;;;;;5051025;28;20496;-76
2023/10/12 11:53:24;;;;;;;2.70;0.68;;;16.50;28.80;;;;;;5055416;28;20107;-76
2023/10/12 11:56:03;;;;;;;6.18;1.30;;;16.50;99.90;;;;;;5069385;28;20415;-76
2023/10/12 11:58:30;;;;;;;3.50;1.05;;;16.50;99.90;;;;;;5069559;28;20115;-76
2023/10/12 12:01:00;;;;;;;2.58;0.70;;;16.30;99.90;;;;;;5049656;28;20045;-76
2023/10/12 12:03:26;;;;;;;2.03;0.80;;;16.20;99.90;;;;;;5067340;28;20040;-76
2023/10/12 12:05:52;;;;;;;2.78;0.82;;;16.20;99.90;;;;;;5069516;28;20495;-76
2023/10/12 12:08:18;;;;;;;;;;;16.10;99.90;;;;;;5070265;28;20048;-76
2023/10/12 12:10:53;;;;;;;3.45;0.70;;;16.10;69.50;;;;;;5069475;28;19927;-76
2023/10/12 12:13:23;;;;;;;3.70;0.90;;;16.10;70.80;;;;;;5069892;28;20063;-76
2023/10/12 12:15:50;;;;;;;1.67;0.57;;;16.00;51.60;;;;;;5049749;28;20389;-76
2023/10/12 12:18:19;;;;;;;1.02;0.57;;;15.90;1.00;;;;;;5061964;28;20140;-76
2023/10/12 12:20:49;;;;;;;2.55;0.65;;;15.80;1.00;;;;;;5069400;28;20503;-76
2023/10/12 12:23:16;;;;;;;2.15;0.60;;;15.70;1.00;;;;;;5069628;28;20048;-76
2023/10/12 12:25:42;;;;;;;2.05;0.50;;;15.70;1.00;;;;;;5069292;28;20044;-76
2023/10/12 12:28:09;;;;;;;;;;;15.70;1.00;;;;;;5069623;28;20052;-76
2023/10/12 12:30:39;;;;;;;2.80;0.88;;;15.80;41.80;;;;;;5069260;28;19930;-77
2023/10/12 12:33:15;;;;;;;1.33;0.50;;;15.80;43.80;;;;;;5069059;28;20098;-76
2023/10/12 12:35:44;;;;;;;0.90;0.47;;;15.80;74.10;;;;;;5069256;28;20058;-76
2023/10/12 12:40:57;;;;;;;1.42;0.68;;;15.80;99.90;;;;;;5066868;28;20111;-76
2023/10/12 12:43:23;;;;;;;1.10;0.60;;;15.80;99.90;;;;;;5069492;28;20037;-76
2023/10/12 12:45:49;;;;;;;1.23;0.50;;;15.90;99.90;;;;;;5070435;28;20128;-76
2023/10/12 12:48:15;;;;;;;1.35;0.50;;;15.80;99.90;;;;;;5053130;28;20088;-76
2023/10/12 12:50:43;;;;;;;;;;;15.80;99.90;;;;;;5063855;28;20045;-76
2023/10/12 12:53:11;;;;;;;1.02;0.40;;;15.90;99.90;;;;;;5069303;28;19929;-76
2023/10/12 12:55:40;;;;;;;1.83;0.47;;;15.80;99.90;;;;;;5041543;28;20045;-76
2023/10/12 12:58:09;;;;;;;1.50;0.40;;;15.80;99.90;;;;;;5067468;28;20044;-76
2023/10/12 13:00:35;;;;;;;0.88;0.30;;;15.80;99.90;;;;;;5053468;28;20053;-76
2023/10/12 13:03:01;;;;;;;1.38;0.50;;;15.80;99.90;;;;;;5066501;28;20055;-76
2023/10/12 13:05:30;;;;;;;1.13;0.45;;;15.70;99.90;;;;;;5072985;28;20045;-76
2023/10/12 13:07:56;;;;;;;1.23;0.40;;;15.70;99.90;;;;;;5072933;28;20047;-76
2023/10/12 13:10:25;;;;;;;1.73;0.47;;;15.70;99.90;;;;;;5036507;28;20041;-76
2023/10/12 13:12:51;;;;;;;1.83;0.40;;;15.70;99.90;;;;;;5059654;28;20124;-76
2023/10/12 13:15:17;;;;;;;1.52;0.50;;;15.60;99.90;;;;;;5050675;28;20116;-76
2023/10/12 13:17:44;;;;;;;1.67;0.30;;;15.60;99.90;;;;;;5072758;28;20048;-76
2023/10/12 13:20:21;;;;;;;0.98;0.47;;;15.60;99.90;;;;;;5072765;28;20051;-76
2023/10/12 13:22:49;;;;;;;0.95;0.30;;;15.60;99.90;;;;;;5052938;28;20055;-76
2023/10/12 13:25:17;;;;;;;1.42;0.63;;;15.50;99.90;;;;;;5066400;28;20048;-76
2023/10/12 13:27:46;;;;;;;1.10;0.50;;;15.50;99.90;;;;;;5072082;28;20118;-76
2023/10/12 13:30:14;;;;;;;0.70;0.30;;;15.50;99.90;;;;;;5068803;28;20079;-76
2023/10/12 13:32:43;;;;;;;0.75;0.30;;;15.50;99.90;;;;;;5068202;28;20045;-76
2023/10/12 13:35:31;;;;;;;1.02;0.35;;;15.40;99.90;;;;;;5064312;28;20125;-77
2023/10/12 13:38:03;;;;;;;1.23;0.60;;;15.40;99.90;;;;;;5072368;28;20514;-76
2023/10/12 13:40:30;;;;;;;1.60;0.50;;;15.40;99.90;;;;;;5073175;28;20055;-76
2023/10/12 13:43:07;;;;;;;1.17;0.30;;;15.40;99.90;;;;;;5054418;28;20589;-75
2023/10/12 13:45:35;;;;;;;1.85;0.52;;;15.40;99.90;;;;;;5032953;28;20049;-75
2023/10/12 13:48:02;;;;;;;0.60;0.40;;;15.40;99.90;;;;;;5053479;28;20045;-75
2023/10/12 13:50:28;;;;;;;1.75;0.55;;;15.40;99.90;;;;;;5067836;28;20044;-76
2023/10/12 13:52:54;;;;;;;1.98;0.65;;;15.30;99.90;;;;;;5073193;28;20041;-77
2023/10/12 13:55:20;;;;;;;2.33;0.60;;;15.30;99.90;;;;;;5056452;28;20048;-76
2023/10/12 13:57:57;;;;;;;1.73;0.50;;;15.20;99.90;;;;;;5060739;28;20183;-76
2023/10/12 14:00:26;;;;;;;1.65;0.52;;;15.10;99.90;;;;;;5047964;28;20496;-76
2023/10/12 14:02:56;;;;;;;1.38;0.45;;;15.00;99.90;;;;;;5040475;28;20043;-76
2023/10/12 14:05:28;;;;;;;1.40;0.52;;;15.00;99.90;;;;;;5053246;28;20126;-73
2023/10/12 14:08:01;;;;;;;1.45;0.40;;;15.00;99.90;;;;;;5062405;28;20388;-74
2023/10/12 14:10:27;;;;;;;0.57;0.32;;;14.90;99.90;;;;;;5072425;28;20059;-74
2023/10/12 14:12:53;;;;;;;;;;;15.00;99.90;;;;;;5048766;28;20068;-74
2023/10/12 14:15:29;;;;;;;2.20;0.70;;;15.00;99.90;;;;;;5060509;28;19951;-75
2023/10/12 14:17:55;;;;;;;1.88;0.60;;;15.00;99.90;;;;;;5063869;28;20353;-75
2023/10/12 14:20:28;;;;;;;1.23;0.60;;;15.00;99.90;;;;;;5051319;28;20059;-75
2023/10/12 14:22:58;;;;;;;1.80;0.50;;;15.00;99.90;;;;;;5062709;28;20044;-75
2023/10/12 14:25:30;;;;;;;0.82;0.40;;;14.90;99.90;;;;;;5069012;28;20051;-75
2023/10/12 14:27:59;;;;;;;0.90;0.43;;;14.90;99.90;;;;;;5066152;28;20055;-78
2023/10/12 14:30:29;;;;;;;1.77;0.43;;;14.90;99.90;;;;;;5051634;28;20053;-78
2023/10/12 14:33:02;;;;;;;3.47;0.77;;;14.80;99.90;;;;;;5054911;28;20040;-78
2023/10/12 14:35:39;;;;;;;2.35;0.60;;;14.80;99.90;;;;;;5067927;28;20083;-78
2023/10/12 14:38:13;;;;;;;1.73;0.50;;;14.70;99.90;;;;;;5054033;28;20510;-79
2023/10/12 14:40:42;;;;;;;2.63;0.63;;;14.60;99.90;;;;;;5065744;28;20131;-78
2023/10/12 14:43:13;;;;;;;2.60;0.50;;;14.50;99.90;;;;;;5059418;28;20084;-78
2023/10/12 14:45:43;;;;;;;2.17;0.70;;;14.40;99.90;;;;;;5065412;28;20491;-79
2023/10/12 14:48:10;;;;;;;1.73;0.60;;;14.30;99.90;;;;;;5071158;28;20036;-78
2023/10/12 14:51:00;;;;;;;1.77;0.40;;;14.20;99.90;;;;;;5063138;28;20373;-78
2023/10/12 14:53:28;;;;;;;1.05;0.45;;;14.10;99.90;;;;;;5056787;28;20040;-79
2023/10/12 14:55:56;;;;;;;2.55;0.50;;;14.00;99.90;;;;;;5046245;28;20044;-86
2023/10/12 14:58:26;;;;;;;1.55;0.60;;;13.90;99.90;;;;;;5053471;28;20064;-80
2023/10/12 15:00:53;;;;;;;1.30;0.50;;;13.80;99.90;;;;;;5068225;28;20076;-80
2023/10/12 15:03:22;;;;;;;1.42;0.43;;;13.80;99.90;;;;;;5043611;28;20041;-80
2023/10/12 15:05:52;;;;;;;1.17;0.40;;;13.80;99.90;;;;;;5037107;28;20037;-81
2023/10/12 15:08:20;;;;;;;1.65;0.57;;;13.70;99.90;;;;;;5059807;28;20737;-81
2023/10/12 15:10:46;;;;;;;2.80;0.60;;;13.70;99.90;;;;;;5071027;28;20499;-81
2023/10/12 15:13:16;;;;;;;1.58;0.60;;;13.70;99.90;;;;;;5070351;28;20108;-81
2023/10/12 15:15:46;;;;;;;1.08;0.55;;;13.60;99.90;;;;;;5044364;28;20047;-81
2023/10/12 15:18:23;;;;;;;1.95;0.70;;;13.60;99.90;;;;;;5047293;28;20044;-81
2023/10/12 15:20:49;;;;;;;;;;;13.60;99.90;;;;;;5068356;28;20059;-81
2023/10/12 15:23:16;;;;;;;1.23;0.70;;;13.50;99.90;;;;;;5063854;28;20007;-81
2023/10/12 15:25:43;;;;;;;2.83;0.70;;;13.50;99.90;;;;;;5064110;28;20044;-81
2023/10/12 15:28:11;;;;;;;2.15;0.75;;;13.50;99.90;;;;;;5045241;28;20064;-81
2023/10/12 15:30:44;;;;;;;1.33;0.68;;;13.40;99.90;;;;;;5063382;28;20183;-81